Time;durP1;ratioP1;P1;durP2;ratioP2;P2;SDS_P1;SDS_P2;PMS_P1;PMS_P2;Temp;Humidity;BMP_temperature;BMP_pressure;BME280_temperature;BME280_humidity;BME280_pressure;Samples;Min_cycle;Max_cycle;Signal;HPM_P1;HPM_P2
2023/08/23 00:00:13;;;;;;;3.20;2.30;;;;;;;14.33;75.04;99083.67;105640;1261;74465;-23
2023/08/23 00:02:41;;;;;;;5.30;3.10;;;;;;;14.83;74.22;99079.31;105472;1256;75084;-22
2023/08/23 00:05:09;;;;;;;6.60;3.90;;;;;;;14.92;73.70;99078.44;105567;1260;61880;-23
2023/08/23 00:07:36;;;;;;;6.40;3.70;;;;;;;14.74;73.31;99077.27;105561;1260;62846;-23
2023/08/23 00:10:05;;;;;;;5.10;3.90;;;;;;;14.53;74.35;99081.02;105558;1260;75472;-23
2023/08/23 00:12:33;;;;;;;8.10;3.60;;;;;;;14.30;74.81;99084.44;105617;1263;76801;-23
2023/08/23 00:15:01;;;;;;;6.80;4.00;;;;;;;14.07;75.33;99082.08;105516;1257;75248;-23
2023/08/23 00:17:29;;;;;;;4.70;2.80;;;;;;;13.93;75.78;99080.94;105486;1257;63206;-23
2023/08/23 00:19:57;;;;;;;5.60;2.60;;;;;;;14.42;76.33;99072.46;105317;1259;61096;-23
2023/08/23 00:22:26;;;;;;;7.50;3.20;;;;;;;15.01;74.68;99073.77;105731;1259;75456;-23
2023/08/23 00:24:54;;;;;;;6.00;3.70;;;;;;;15.12;74.07;99067.80;105598;1254;75712;-23
2023/08/23 00:27:22;;;;;;;9.50;3.90;;;;;;;15.01;73.35;99071.66;105494;1257;75157;-23
2023/08/23 00:29:49;;;;;;;6.60;3.70;;;;;;;14.79;72.90;99070.27;105539;1258;62808;-23
2023/08/23 00:32:17;;;;;;;9.20;4.20;;;;;;;14.52;74.24;99077.21;105602;1254;62878;-23
2023/08/23 00:34:45;;;;;;;8.00;4.00;;;;;;;14.29;74.59;99078.45;105624;1258;71798;-23
2023/08/23 00:37:13;;;;;;;4.50;2.60;;;;;;;14.13;75.09;99078.42;105649;1253;74442;-23
2023/08/23 00:39:41;;;;;;;6.80;3.20;;;;;;;14.56;74.60;99072.88;105628;1258;76578;-23
2023/08/23 00:42:10;;;;;;;4.90;3.00;;;;;;;15.09;73.15;99065.48;105649;1254;63775;-23
2023/08/23 00:44:37;;;;;;;5.20;3.30;;;;;;;15.15;72.70;99055.05;105713;1253;62565;-23
2023/08/23 00:47:05;;;;;;;7.60;3.80;;;;;;;15.05;73.14;99061.59;105678;1258;75513;-23
2023/08/23 00:49:34;;;;;;;4.70;3.40;;;;;;;14.91;73.50;99062.69;105365;1253;75637;-22
2023/08/23 00:52:04;;;;;;;6.40;4.10;;;;;;;14.76;73.68;99055.42;105624;1257;75633;-22
2023/08/23 00:54:32;;;;;;;7.50;3.40;;;;;;;14.61;74.74;99051.90;105650;1256;63894;-22
2023/08/23 00:57:01;;;;;;;3.40;2.30;;;;;;;14.48;75.32;99056.73;105182;1261;61082;-22
2023/08/23 00:59:31;;;;;;;6.30;2.20;;;;;;;14.89;74.71;99061.80;105316;1261;73207;-22
2023/08/23 01:02:00;;;;;;;4.20;2.90;;;;;;;15.40;73.51;99052.20;105298;1263;74445;-22
2023/08/23 01:04:28;;;;;;;6.30;3.20;;;;;;;15.51;72.78;99047.62;105635;1253;71455;-22
2023/08/23 01:07:01;;;;;;;5.20;3.40;;;;;;;15.38;73.09;99044.31;105464;1256;60992;-22
2023/08/23 01:10:03;;;;;;;6.60;3.70;;;;;;;15.18;73.19;99037.74;105662;1253;61111;-22
2023/08/23 01:12:43;;;;;;;5.10;3.30;;;;;;;14.94;74.29;99036.00;105565;1258;73111;-22
2023/08/23 01:15:11;;;;;;;6.30;3.50;;;;;;;14.70;74.22;99033.98;105586;1253;73222;-22
2023/08/23 01:17:42;;;;;;;4.00;2.40;;;;;;;14.50;74.92;99026.66;105563;1256;72728;-22
2023/08/23 01:20:11;;;;;;;4.00;2.30;;;;;;;14.92;75.46;99021.81;105648;1260;61730;-22
2023/08/23 01:22:44;;;;;;;7.10;3.10;;;;;;;15.43;74.59;99032.86;105659;1253;61850;-23
2023/08/23 01:25:13;;;;;;;6.90;2.80;;;;;;;15.48;73.86;99041.08;105620;1260;71843;-22
2023/08/23 01:27:41;;;;;;;4.30;3.00;;;;;;;15.29;73.89;99046.27;105598;1261;76757;-22
2023/08/23 01:30:23;;;;;;;4.90;3.60;;;;;;;15.01;74.09;99049.77;105623;1260;75190;-22
2023/08/23 01:33:05;;;;;;;4.00;3.20;;;;;;;14.75;74.61;99050.98;105671;1259;62691;-22
2023/08/23 01:35:59;;;;;;;4.10;3.50;;;;;;;14.49;75.62;99047.39;105590;1253;61194;-22
2023/08/23 01:38:27;;;;;;;4.50;2.90;;;;;;;14.33;77.09;99052.08;105644;1258;74835;-22
2023/08/23 01:40:55;;;;;;;4.30;2.40;;;;;;;14.84;77.24;99052.48;105613;1253;76822;-22
2023/08/23 01:43:23;;;;;;;5.00;2.60;;;;;;;15.35;75.59;99053.55;105287;1261;76647;-22
2023/08/23 01:45:51;;;;;;;6.50;3.30;;;;;;;15.44;74.48;99058.25;105591;1256;62513;-22
2023/08/23 01:48:20;;;;;;;4.90;3.30;;;;;;;15.30;74.29;99055.71;105721;1258;63856;-22
2023/08/23 01:50:50;;;;;;;4.50;3.70;;;;;;;15.03;75.18;99058.88;105579;1257;76164;-22
2023/08/23 01:53:18;;;;;;;6.70;4.00;;;;;;;14.77;75.79;99057.27;105554;1260;76931;-22
2023/08/23 01:55:46;;;;;;;7.10;3.80;;;;;;;14.54;76.18;99063.97;105549;1258;72701;-22
2023/08/23 01:58:13;;;;;;;4.20;2.40;;;;;;;14.41;77.04;99065.95;105374;1258;61145;-22
2023/08/23 02:00:49;;;;;;;7.20;2.90;;;;;;;14.85;76.87;99065.65;105651;1253;61395;-22
2023/08/23 02:03:17;;;;;;;5.30;3.10;;;;;;;15.42;75.45;99067.59;105682;1255;70853;-22
2023/08/23 02:05:45;;;;;;;5.90;3.10;;;;;;;15.53;74.60;99060.83;105749;1258;75706;-22
2023/08/23 02:08:14;;;;;;;4.40;3.40;;;;;;;15.46;73.98;99056.61;105643;1258;75161;-22
2023/08/23 02:10:42;;;;;;;6.60;3.50;;;;;;;15.34;74.45;99057.67;105663;1253;61507;-22
2023/08/23 02:13:10;;;;;;;8.00;3.40;;;;;;;15.15;74.68;99058.88;105691;1253;62521;-22
2023/08/23 02:15:38;;;;;;;5.10;3.50;;;;;;;14.96;75.21;99059.19;105641;1253;75941;-22
2023/08/23 02:18:06;;;;;;;5.60;2.30;;;;;;;14.84;75.83;99061.75;105535;1260;77242;-22
2023/08/23 02:20:34;;;;;;;7.20;2.60;;;;;;;15.31;76.26;99055.91;105562;1254;72698;-22
2023/08/23 02:23:03;;;;;;;7.30;3.30;;;;;;;15.88;74.33;99045.45;105637;1253;61531;-23
2023/08/23 02:25:31;;;;;;;4.20;3.50;;;;;;;15.99;73.39;99048.84;105700;1258;61181;-22
2023/08/23 02:27:59;;;;;;;4.30;3.00;;;;;;;15.84;73.35;99055.80;105639;1258;75926;-22
2023/08/23 02:30:27;;;;;;;7.20;3.80;;;;;;;15.55;73.67;99052.30;105664;1254;74436;-23
2023/08/23 02:35:12;;;;;;;5.50;3.40;;;;;;;15.07;75.13;99060.17;102740;1290;601044;-22
2023/08/23 02:37:43;;;;;;;5.00;2.70;;;;;;;14.84;76.01;99060.34;105045;1264;64331;-22
2023/08/23 02:40:13;;;;;;;5.00;2.80;;;;;;;15.24;76.34;99062.16;104909;1269;62500;-22
2023/08/23 02:42:41;;;;;;;4.40;3.10;;;;;;;15.71;74.89;99058.98;104902;1264;76107;-23
2023/08/23 02:45:08;;;;;;;4.70;3.40;;;;;;;15.69;74.33;99058.16;104899;1269;73410;-23
2023/08/23 02:47:40;;;;;;;5.30;2.90;;;;;;;15.43;75.13;99058.14;104062;1264;2741217;-23
2023/08/23 02:50:09;;;;;;;5.60;3.60;;;;;;;15.22;75.58;99053.53;104744;1264;61714;-23
2023/08/23 02:52:36;;;;;;;5.00;3.60;;;;;;;14.98;75.91;99050.64;104919;1270;61561;-22
2023/08/23 02:55:04;;;;;;;6.80;3.80;;;;;;;14.77;76.24;99046.95;105017;1269;62331;-23
2023/08/23 02:57:32;;;;;;;7.30;3.00;;;;;;;14.65;76.76;99046.14;104985;1264;72352;-23
2023/08/23 03:00:00;;;;;;;4.70;2.80;;;;;;;15.12;76.94;99048.88;105210;1266;77230;-23
2023/08/23 03:02:28;;;;;;;8.50;3.30;;;;;;;15.69;75.29;99042.94;105164;1264;71743;-23
2023/08/23 03:04:56;;;;;;;5.50;3.30;;;;;;;15.79;73.87;99040.05;105123;1269;62794;-23
2023/08/23 03:07:24;;;;;;;5.80;3.50;;;;;;;15.63;73.63;99038.04;105191;1266;62330;-23
2023/08/23 03:09:52;;;;;;;6.30;3.80;;;;;;;15.37;74.29;99030.80;105197;1260;76626;-23
2023/08/23 03:12:20;;;;;;;7.00;4.20;;;;;;;15.14;74.94;99023.89;105165;1260;75247;-23
2023/08/23 03:14:48;;;;;;;7.90;4.00;;;;;;;14.95;74.98;99024.89;105208;1263;75262;-23
2023/08/23 03:17:16;;;;;;;5.30;2.80;;;;;;;14.79;75.71;99027.67;105179;1267;61895;-23
2023/08/23 03:19:46;;;;;;;5.40;2.80;;;;;;;15.24;76.32;99031.12;105194;1260;62658;-23
2023/08/23 03:22:15;;;;;;;5.90;3.70;;;;;;;15.75;74.82;99026.65;105218;1266;75905;-22
2023/08/23 03:24:43;;;;;;;7.00;3.10;;;;;;;15.83;74.13;99025.80;105259;1260;74463;-23
2023/08/23 03:27:11;;;;;;;5.30;3.60;;;;;;;15.69;74.38;99024.73;105218;1265;74161;-23
2023/08/23 03:29:39;;;;;;;5.30;3.50;;;;;;;15.50;74.32;99023.70;105251;1260;62103;-22
2023/08/23 03:32:07;;;;;;;5.00;3.60;;;;;;;15.29;74.96;99020.07;105332;1260;62882;-23
2023/08/23 03:34:35;;;;;;;5.90;3.60;;;;;;;15.09;75.50;99018.88;105231;1266;71845;-22
2023/08/23 03:37:03;;;;;;;7.70;2.70;;;;;;;14.94;76.60;99025.34;105204;1267;73467;-23
2023/08/23 03:39:31;;;;;;;4.50;2.80;;;;;;;15.40;76.96;99029.07;105217;1264;72701;-23
2023/08/23 03:41:59;;;;;;;6.00;3.20;;;;;;;15.91;74.28;99027.27;105084;1260;63924;-23
2023/08/23 03:44:27;;;;;;;6.50;3.10;;;;;;;15.99;73.65;99026.29;104979;1261;61148;-23
2023/08/23 03:46:58;;;;;;;6.20;3.70;;;;;;;15.85;73.40;99021.54;105133;1261;72110;-23
2023/08/23 03:49:26;;;;;;;6.70;3.70;;;;;;;15.70;73.84;99024.81;105025;1260;75567;-23
2023/08/23 03:51:56;;;;;;;5.40;3.80;;;;;;;15.58;74.26;99026.16;105054;1266;72761;-23
2023/08/23 03:54:24;;;;;;;5.50;3.60;;;;;;;15.50;74.65;99023.40;105001;1261;61109;-23
2023/08/23 03:56:52;;;;;;;5.50;2.60;;;;;;;15.43;75.05;99021.81;104972;1260;61058;-23
2023/08/23 03:59:20;;;;;;;4.50;2.60;;;;;;;15.97;74.99;99023.84;105008;1267;73080;-23
2023/08/23 04:01:48;;;;;;;4.40;3.00;;;;;;;16.55;72.97;99026.35;105067;1261;73498;-22
2023/08/23 04:04:16;;;;;;;3.90;2.90;;;;;;;16.68;72.39;99029.87;105111;1264;75172;-23
2023/08/23 04:06:44;;;;;;;4.20;3.40;;;;;;;16.58;72.41;99025.70;105108;1260;61911;-23
2023/08/23 04:09:12;;;;;;;5.40;3.50;;;;;;;16.40;72.81;99027.36;105144;1261;61458;-22
2023/08/23 04:11:40;;;;;;;8.20;3.40;;;;;;;16.25;73.65;99030.02;105119;1260;74514;-22
2023/08/23 04:14:08;;;;;;;7.20;4.40;;;;;;;16.15;74.06;99029.30;105117;1261;74572;-23
2023/08/23 04:16:36;;;;;;;5.20;3.80;;;;;;;16.06;74.15;99032.52;105200;1261;74525;-22
2023/08/23 04:19:04;;;;;;;5.40;2.70;;;;;;;15.98;75.15;99035.96;105197;1266;63272;-23
2023/08/23 04:21:32;;;;;;;5.40;2.80;;;;;;;16.54;74.79;99036.45;104902;1266;62521;-23
2023/08/23 04:24:00;;;;;;;6.50;3.40;;;;;;;17.26;72.64;99026.43;105583;1260;75783;-23
2023/08/23 04:26:28;;;;;;;5.70;4.20;;;;;;;17.63;71.31;99022.56;105415;1257;73269;-23
2023/08/23 04:28:56;;;;;;;6.40;4.00;;;;;;;17.89;70.16;99027.07;105481;1262;74928;-23
2023/08/23 04:31:24;;;;;;;8.00;4.20;;;;;;;17.92;69.56;99027.41;105557;1257;61157;-23
2023/08/23 04:33:59;;;;;;;6.40;4.60;;;;;;;17.84;69.16;99026.73;105476;1257;61849;-23
2023/08/23 04:36:27;;;;;;;7.70;4.90;;;;;;;17.70;69.46;99027.63;105526;1256;75530;-23
2023/08/23 04:38:55;;;;;;;5.60;4.20;;;;;;;17.55;70.04;99026.44;105483;1262;76136;-22
2023/08/23 04:41:23;;;;;;;6.80;3.50;;;;;;;17.45;70.94;99026.15;105279;1260;75643;-23
2023/08/23 04:43:51;;;;;;;6.50;3.80;;;;;;;17.89;71.11;99015.31;105375;1257;61882;-23
2023/08/23 04:46:19;;;;;;;11.90;4.70;;;;;;;18.44;69.79;99011.04;105412;1257;61851;-23
2023/08/23 04:48:47;;;;;;;7.10;4.20;;;;;;;18.59;68.86;99003.86;105617;1261;75873;-23
2023/08/23 04:51:15;;;;;;;7.00;5.10;;;;;;;18.51;68.57;99001.63;105642;1257;77171;-23
2023/08/23 04:53:43;;;;;;;8.10;5.40;;;;;;;18.36;68.46;99006.01;105489;1256;75174;-23
2023/08/23 04:56:12;;;;;;;8.20;5.50;;;;;;;18.19;68.81;99014.13;105358;1266;61995;-23
2023/08/23 04:58:40;;;;;;;10.90;5.70;;;;;;;18.03;69.27;99016.21;105532;1255;61134;-23
2023/08/23 05:01:09;;;;;;;10.10;5.50;;;;;;;17.93;70.12;99008.33;105692;1262;76981;-23
2023/08/23 05:03:39;;;;;;;8.50;5.30;;;;;;;17.86;70.45;99005.95;105653;1254;74385;-23
2023/08/23 05:06:07;;;;;;;8.20;3.70;;;;;;;17.86;70.69;99003.52;105569;1263;71422;-23
2023/08/23 05:08:35;;;;;;;12.90;6.30;;;;;;;18.45;70.59;98999.86;105525;1263;61256;-23
2023/08/23 05:11:07;;;;;;;11.70;5.00;;;;;;;19.08;68.33;99009.15;105564;1254;62690;-23
2023/08/23 05:13:35;;;;;;;7.80;4.60;;;;;;;19.09;67.46;99015.05;105607;1262;74986;-23
2023/08/23 05:16:03;;;;;;;8.70;5.40;;;;;;;18.94;67.24;99018.23;105638;1254;77011;-23
2023/08/23 05:18:31;;;;;;;9.30;5.70;;;;;;;18.73;67.35;99017.06;105612;1257;75161;-23
2023/08/23 05:20:59;;;;;;;18.60;5.60;;;;;;;18.59;68.28;99014.45;105573;1258;61844;-23
2023/08/23 05:23:28;;;;;;;16.80;5.80;;;;;;;18.40;67.59;99010.82;105700;1257;61601;-23
2023/08/23 05:25:56;;;;;;;11.10;5.60;;;;;;;18.26;67.97;99021.16;105505;1262;74821;-23
2023/08/23 05:28:24;;;;;;;11.10;5.90;;;;;;;18.05;68.84;99020.94;105585;1255;74370;-23
2023/08/23 05:30:52;;;;;;;10.70;4.90;;;;;;;17.86;69.42;99022.11;105608;1256;75183;-23
2023/08/23 05:33:24;;;;;;;9.70;5.60;;;;;;;17.73;70.37;99021.15;105614;1254;62916;-23
2023/08/23 05:35:52;;;;;;;8.90;4.20;;;;;;;17.70;71.01;99020.98;105549;1256;64186;-23
2023/08/23 05:38:20;;;;;;;9.50;3.90;;;;;;;18.50;70.50;99016.89;105621;1260;73085;-23
2023/08/23 05:40:48;;;;;;;11.00;4.70;;;;;;;19.44;67.77;99018.98;105546;1263;74654;-23
2023/08/23 05:43:17;;;;;;;8.00;4.10;;;;;;;19.86;64.93;99017.87;105598;1258;74068;-23
2023/08/23 05:45:45;;;;;;;8.60;4.00;;;;;;;19.98;63.89;99022.16;105599;1262;61951;-23
2023/08/23 05:48:13;;;;;;;8.90;4.20;;;;;;;20.05;63.65;99027.98;105594;1261;62477;-23
2023/08/23 05:50:41;;;;;;;17.90;4.40;;;;;;;19.95;63.14;99029.84;105735;1258;75594;-23
2023/08/23 05:53:18;;;;;;;7.40;3.70;;;;;;;19.83;62.91;99041.66;105443;1261;77202;-23
2023/08/23 05:55:48;;;;;;;13.30;3.80;;;;;;;19.54;63.71;99045.14;105664;1260;75269;-23
2023/08/23 05:58:19;;;;;;;7.60;3.40;;;;;;;19.58;64.29;99037.05;105601;1258;61115;-23
2023/08/23 06:00:47;;;;;;;6.60;3.50;;;;;;;19.58;63.22;99029.61;105687;1252;61148;-23
2023/08/23 06:03:16;;;;;;;6.10;3.20;;;;;;;19.70;63.13;99032.64;105634;1258;72790;-23
2023/08/23 06:05:44;;;;;;;8.80;3.50;;;;;;;19.85;62.86;99038.05;105906;1257;74533;-23
2023/08/23 06:08:12;;;;;;;7.80;4.00;;;;;;;19.95;62.45;99042.86;105938;1254;76676;-22
2023/08/23 06:10:40;;;;;;;12.00;3.60;;;;;;;20.08;61.95;99040.23;105586;1257;61125;-22
2023/08/23 06:13:08;;;;;;;5.70;3.30;;;;;;;20.21;61.78;99032.52;105665;1251;61779;-22
2023/08/23 06:15:36;;;;;;;6.20;3.10;;;;;;;20.15;61.24;99034.86;105887;1252;75489;-22
2023/08/23 06:18:05;;;;;;;6.90;3.40;;;;;;;20.15;61.08;99041.16;105846;1251;76736;-22
2023/08/23 06:20:33;;;;;;;6.30;3.40;;;;;;;20.10;61.87;99034.27;105889;1254;76556;-23
2023/08/23 06:23:01;;;;;;;5.20;3.00;;;;;;;20.20;62.08;99033.69;105721;1255;62538;-23
2023/08/23 06:25:29;;;;;;;6.00;3.30;;;;;;;20.36;60.87;99033.52;105781;1257;62496;-22
2023/08/23 06:27:57;;;;;;;6.50;3.20;;;;;;;20.42;60.65;99031.64;105843;1257;73006;-22
2023/08/23 06:30:25;;;;;;;5.70;3.20;;;;;;;20.53;60.83;99029.92;105879;1251;73229;-22
2023/08/23 06:32:52;;;;;;;5.10;2.80;;;;;;;20.64;60.25;99031.20;105788;1254;75074;-22
2023/08/23 06:35:21;;;;;;;5.00;2.90;;;;;;;20.86;60.13;99033.14;105600;1256;61097;-22
2023/08/23 06:37:49;;;;;;;5.90;2.90;;;;;;;21.06;58.66;99028.98;105701;1251;63878;-22
2023/08/23 06:40:18;;;;;;;5.00;2.40;;;;;;;21.10;57.09;99029.88;105654;1251;73130;-22
2023/08/23 06:42:47;;;;;;;7.00;2.80;;;;;;;21.26;57.81;99028.58;105853;1257;76209;-23
2023/08/23 06:45:15;;;;;;;3.70;2.40;;;;;;;21.48;57.35;99031.25;105895;1254;75184;-22
2023/08/23 06:47:43;;;;;;;5.90;2.60;;;;;;;21.66;56.33;99033.39;105819;1251;62889;-22
2023/08/23 06:50:11;;;;;;;4.00;2.20;;;;;;;21.90;54.97;99026.46;105817;1257;61169;-22
2023/08/23 06:52:43;;;;;;;4.30;2.50;;;;;;;21.95;53.70;99027.14;105928;1257;74856;-22
2023/08/23 06:55:11;;;;;;;4.90;2.80;;;;;;;21.94;53.67;99029.49;105614;1251;78753;-22
2023/08/23 06:57:39;;;;;;;7.70;2.60;;;;;;;22.05;52.91;99031.08;105547;1254;75207;-22
2023/08/23 07:00:09;;;;;;;6.80;2.50;;;;;;;22.32;52.68;99031.31;105616;1252;60997;-22
2023/08/23 07:02:37;;;;;;;4.20;2.50;;;;;;;22.44;52.14;99030.30;105732;1258;62479;-22
2023/08/23 07:05:06;;;;;;;3.30;2.30;;;;;;;22.63;52.01;99035.04;105859;1257;76743;-22
2023/08/23 07:07:34;;;;;;;6.90;2.50;;;;;;;22.89;48.73;99033.11;105708;1260;77211;-23
2023/08/23 07:10:02;;;;;;;5.60;2.40;;;;;;;23.14;49.63;99034.70;105613;1252;74518;-22
2023/08/23 07:12:48;;;;;;;4.60;1.70;;;;;;;23.32;47.84;99034.61;105671;1255;61220;-22
2023/08/23 07:15:16;;;;;;;2.20;1.30;;;;;;;23.47;48.11;99042.77;105656;1251;61132;-22
2023/08/23 07:17:44;;;;;;;3.40;1.30;;;;;;;23.62;44.58;99041.48;105916;1257;73850;-22
2023/08/23 07:20:13;;;;;;;3.00;1.50;;;;;;;23.67;44.74;99040.31;105870;1251;73317;-22
2023/08/23 07:22:42;;;;;;;3.10;1.50;;;;;;;23.73;45.28;99034.86;105883;1257;75623;-22
2023/08/23 07:25:10;;;;;;;4.00;1.50;;;;;;;23.82;44.87;99034.85;105771;1251;61578;-22
2023/08/23 07:27:38;;;;;;;3.20;1.50;;;;;;;23.97;45.17;99031.44;105840;1257;62484;-22
2023/08/23 07:30:07;;;;;;;2.40;1.30;;;;;;;24.08;44.84;99034.20;105898;1258;76704;-22
2023/08/23 07:32:35;;;;;;;3.10;1.70;;;;;;;24.26;45.30;99032.05;105775;1257;76814;-23
2023/08/23 07:35:04;;;;;;;2.70;1.60;;;;;;;24.38;44.88;99025.03;105694;1255;75071;-22
2023/08/23 07:37:31;;;;;;;1.90;1.20;;;;;;;24.40;43.97;99025.19;105359;1252;61088;-22
2023/08/23 07:39:59;;;;;;;2.70;1.40;;;;;;;24.47;44.10;99025.27;105532;1251;61611;-23
2023/08/23 07:42:27;;;;;;;2.90;1.30;;;;;;;24.53;43.91;99026.52;105528;1251;77705;-22
2023/08/23 07:44:55;;;;;;;5.90;1.50;;;;;;;24.49;43.92;99019.77;105534;1251;76670;-23
2023/08/23 07:47:23;;;;;;;2.90;0.90;;;;;;;24.40;42.23;99017.87;105577;1257;72661;-23
2023/08/23 07:49:51;;;;;;;4.00;1.50;;;;;;;24.28;42.65;99017.22;105794;1257;61189;-22
2023/08/23 08:00:01;;;;;;;2.10;1.00;;;;;;;25.27;42.57;99019.77;102686;1292;600061;-22
2023/08/23 08:02:32;;;;;;;2.70;1.10;;;;;;;25.60;41.09;99020.36;105486;1256;61165;-22
2023/08/23 08:05:00;;;;;;;1.50;0.90;;;;;;;25.76;40.44;99022.42;105450;1262;61154;-22
2023/08/23 08:07:30;;;;;;;1.50;1.00;;;;;;;25.78;39.75;99023.55;105252;1257;74947;-22
2023/08/23 08:10:19;;;;;;;3.20;0.90;;;;;;;25.69;39.48;99021.33;105285;1264;74514;-22
2023/08/23 08:12:47;;;;;;;1.90;0.70;;;;;;;25.83;39.49;99023.15;103048;1254;2997638;-22
2023/08/23 08:15:15;;;;;;;7.80;1.20;;;;;;;25.95;38.74;99017.77;105515;1258;62569;-22
2023/08/23 08:17:43;;;;;;;3.20;1.00;;;;;;;26.00;38.81;99016.27;105740;1258;62442;-22
2023/08/23 08:20:12;;;;;;;2.90;1.00;;;;;;;25.74;38.93;99016.41;105751;1259;74641;-22
2023/08/23 08:22:42;;;;;;;3.80;1.40;;;;;;;25.79;38.82;99020.45;105755;1253;76707;-22
2023/08/23 08:25:10;;;;;;;2.40;0.90;;;;;;;25.84;39.17;99017.95;105675;1254;72709;-22
2023/08/23 08:27:41;;;;;;;3.40;1.10;;;;;;;25.83;39.36;99017.33;105652;1253;61907;-22
2023/08/23 08:30:09;;;;;;;7.40;1.40;;;;;;;25.90;39.14;99015.82;105683;1253;61932;-22
2023/08/23 08:32:37;;;;;;;3.00;1.20;;;;;;;25.99;38.51;99013.33;105694;1253;75552;-22
2023/08/23 08:35:06;;;;;;;2.10;0.80;;;;;;;26.03;37.92;99012.41;105688;1253;76813;-22
2023/08/23 08:37:34;;;;;;;2.20;0.90;;;;;;;26.04;36.97;99008.36;105636;1261;75193;-22
2023/08/23 08:40:02;;;;;;;3.00;1.20;;;;;;;26.35;37.06;99003.25;105656;1258;61496;-21
2023/08/23 08:42:30;;;;;;;3.90;1.10;;;;;;;26.48;37.47;98998.33;105727;1253;61059;-21
2023/08/23 08:44:58;;;;;;;2.50;1.10;;;;;;;26.45;37.25;99003.50;105499;1254;74476;-21
2023/08/23 08:47:26;;;;;;;6.10;1.00;;;;;;;26.43;37.24;99000.34;105425;1253;77171;-21
2023/08/23 08:49:55;;;;;;;1.10;0.80;;;;;;;26.55;37.23;99005.67;105560;1256;72844;-21
2023/08/23 08:52:24;;;;;;;3.30;1.30;;;;;;;26.51;37.51;99001.64;105548;1253;61163;-21
2023/08/23 08:54:53;;;;;;;2.30;1.20;;;;;;;26.51;37.70;99007.73;105353;1254;61151;-21
2023/08/23 08:57:22;;;;;;;3.70;1.20;;;;;;;26.73;37.42;99006.11;105311;1261;75113;-21
2023/08/23 08:59:50;;;;;;;2.90;1.20;;;;;;;27.00;36.75;99004.95;105510;1253;78427;-21
2023/08/23 09:02:18;;;;;;;1.60;0.90;;;;;;;27.35;36.49;99000.27;105551;1257;75232;-21
2023/08/23 09:04:46;;;;;;;4.40;1.30;;;;;;;27.36;36.18;98992.01;105465;1253;61405;-21
2023/08/23 09:07:15;;;;;;;8.00;2.10;;;;;;;27.55;36.11;98988.06;105633;1253;61474;-21
2023/08/23 09:09:43;;;;;;;4.10;1.40;;;;;;;27.68;35.68;98984.71;105644;1253;75217;-21
2023/08/23 09:12:11;;;;;;;3.40;1.10;;;;;;;27.79;35.86;98977.85;105600;1254;76828;-21
2023/08/23 09:14:39;;;;;;;5.50;1.30;;;;;;;27.68;36.50;98981.40;105701;1253;73819;-22
2023/08/23 09:17:07;;;;;;;3.30;1.20;;;;;;;27.41;37.24;98983.65;105667;1258;61164;-21
2023/08/23 09:19:39;;;;;;;3.50;1.30;;;;;;;27.34;37.56;98980.26;105663;1258;61139;-21
2023/08/23 09:22:06;;;;;;;6.60;1.40;;;;;;;27.24;37.50;98975.84;105494;1253;77145;-21
2023/08/23 09:24:34;;;;;;;2.40;1.00;;;;;;;27.55;37.23;98975.64;105671;1258;74456;-21
2023/08/23 09:27:03;;;;;;;1.80;1.20;;;;;;;27.88;37.16;98973.31;105531;1253;71789;-21
2023/08/23 09:29:31;;;;;;;3.90;1.00;;;;;;;28.12;36.36;98971.30;105351;1253;61947;-21
2023/08/23 09:32:00;;;;;;;2.10;1.30;;;;;;;27.91;36.41;98967.80;105500;1253;62818;-21
2023/08/23 09:34:27;;;;;;;3.20;1.20;;;;;;;28.39;35.91;98963.44;105727;1258;75791;-21
2023/08/23 09:37:05;;;;;;;3.40;1.20;;;;;;;28.48;35.39;98963.89;105740;1258;78503;-21
2023/08/23 09:39:34;;;;;;;2.60;1.40;;;;;;;28.62;35.66;98967.48;105609;1260;73683;-21
2023/08/23 09:42:04;;;;;;;5.50;1.20;;;;;;;28.67;35.60;98970.02;105579;1253;61779;-23
2023/08/23 09:44:43;;;;;;;2.00;1.30;;;;;;;28.78;35.32;98968.19;105629;1260;62751;-23
2023/08/23 09:47:17;;;;;;;3.00;1.30;;;;;;;28.57;35.17;98965.33;105501;1253;75923;-23
2023/08/23 09:49:45;;;;;;;5.80;1.50;;;;;;;28.68;35.09;98971.91;105592;1261;74577;-23
2023/08/23 09:52:13;;;;;;;4.90;1.70;;;;;;;28.74;35.14;98970.70;105659;1258;75418;-23
2023/08/23 09:54:56;;;;;;;2.40;1.30;;;;;;;28.51;34.83;98973.36;105644;1252;61152;-23
2023/08/23 09:57:41;;;;;;;5.50;1.20;;;;;;;28.17;35.86;98979.71;105644;1254;62383;-24
2023/08/23 10:00:10;;;;;;;2.30;1.20;;;;;;;28.26;35.85;98977.02;105668;1253;74137;-23
2023/08/23 10:02:38;;;;;;;2.40;1.30;;;;;;;28.07;36.75;98976.98;105638;1253;75850;-23
2023/08/23 10:05:06;;;;;;;5.70;1.50;;;;;;;27.89;36.62;98973.26;105355;1253;75182;-23
2023/08/23 10:07:35;;;;;;;2.70;1.50;;;;;;;27.59;37.42;98969.55;105646;1253;62523;-23
2023/08/23 10:10:05;;;;;;;6.10;1.60;;;;;;;27.53;37.91;98970.65;105741;1253;63878;-23
2023/08/23 10:12:35;;;;;;;4.00;1.20;;;;;;;27.74;37.68;98974.16;105686;1253;74915;-23
2023/08/23 10:15:04;;;;;;;3.60;1.40;;;;;;;27.81;36.86;98967.73;105634;1254;76899;-23
2023/08/23 10:17:31;;;;;;;3.30;1.20;;;;;;;27.81;36.67;98966.92;105513;1253;75175;-23
2023/08/23 10:20:03;;;;;;;4.00;1.20;;;;;;;27.47;36.76;98967.74;105649;1255;61116;-23
2023/08/23 10:22:31;;;;;;;3.70;1.50;;;;;;;27.30;37.52;98971.04;105653;1260;62582;-23
2023/08/23 10:25:15;;;;;;;4.10;1.10;;;;;;;27.16;37.83;98972.33;105439;1257;74436;-23
2023/08/23 10:27:45;;;;;;;4.40;1.30;;;;;;;26.84;38.22;98974.00;105513;1253;76795;-23
2023/08/23 10:30:26;;;;;;;12.20;2.00;;;;;;;26.70;38.60;98974.73;105621;1260;76651;-23
2023/08/23 10:32:54;;;;;;;3.20;1.20;;;;;;;26.49;38.94;98971.02;105667;1254;62570;-23
2023/08/23 10:35:32;;;;;;;2.10;1.00;;;;;;;26.29;39.78;98970.54;105406;1253;61100;-23
2023/08/23 10:38:00;;;;;;;4.90;1.50;;;;;;;25.95;40.13;98968.61;105664;1253;75720;-23
2023/08/23 10:40:28;;;;;;;3.20;1.40;;;;;;;25.79;40.65;98968.09;105705;1253;74447;-23
2023/08/23 10:42:56;;;;;;;3.10;1.20;;;;;;;25.54;40.86;98972.99;105656;1258;74073;-23
2023/08/23 10:45:24;;;;;;;5.50;1.20;;;;;;;25.42;41.34;98971.81;105654;1254;62526;-23
2023/08/23 10:47:52;;;;;;;3.30;1.20;;;;;;;25.34;41.57;98972.19;105714;1253;62503;-23
2023/08/23 10:50:21;;;;;;;2.80;1.60;;;;;;;25.19;41.46;98969.79;105660;1253;75245;-23
2023/08/23 10:52:49;;;;;;;8.60;1.40;;;;;;;25.18;41.99;98967.02;105729;1260;78608;-23
2023/08/23 10:55:18;;;;;;;1.90;1.20;;;;;;;25.21;42.16;98967.23;105585;1253;75525;-23
2023/08/23 10:57:46;;;;;;;2.00;1.40;;;;;;;25.39;41.86;98967.42;105472;1254;61548;-23
2023/08/23 11:00:15;;;;;;;4.40;1.60;;;;;;;25.56;41.52;98968.02;105249;1261;62472;-23
2023/08/23 11:02:43;;;;;;;2.30;1.40;;;;;;;25.56;41.07;98975.64;105464;1258;75525;-23
2023/08/23 11:05:11;;;;;;;3.00;1.50;;;;;;;25.44;41.39;98975.33;105551;1253;74396;-23
2023/08/23 11:07:39;;;;;;;5.10;1.50;;;;;;;25.31;41.45;98978.73;105700;1257;72790;-23
2023/08/23 11:10:10;;;;;;;6.00;1.70;;;;;;;25.21;41.75;98981.40;105652;1254;61053;-23
2023/08/23 11:12:38;;;;;;;3.10;1.50;;;;;;;25.24;42.17;98987.07;105593;1258;61179;-23
2023/08/23 11:15:07;;;;;;;7.70;1.70;;;;;;;25.10;42.87;98989.58;105532;1253;73096;-23
2023/08/23 11:17:35;;;;;;;8.50;1.60;;;;;;;25.00;43.81;98991.91;105669;1260;76899;-23
2023/08/23 11:20:03;;;;;;;3.20;1.80;;;;;;;24.83;43.85;98989.34;105611;1253;74616;-23
2023/08/23 11:22:31;;;;;;;5.20;1.50;;;;;;;24.60;44.32;98992.35;105553;1261;62908;-23
2023/08/23 11:25:00;;;;;;;31.80;3.20;;;;;;;24.40;45.58;98991.42;105655;1258;63789;-23
2023/08/23 11:27:29;;;;;;;3.00;1.20;;;;;;;24.12;46.18;98994.48;105643;1258;74544;-23
2023/08/23 11:30:01;;;;;;;2.40;1.50;;;;;;;23.94;46.79;98993.85;105428;1253;77319;-23
2023/08/23 11:32:29;;;;;;;3.00;1.60;;;;;;;23.81;47.53;98995.13;105256;1260;72771;-23
2023/08/23 11:34:57;;;;;;;3.40;1.80;;;;;;;23.81;47.64;98993.92;105516;1253;64046;-23
2023/08/23 11:37:25;;;;;;;3.60;2.00;;;;;;;23.82;48.71;98998.59;105582;1253;62212;-23
2023/08/23 11:40:04;;;;;;;3.10;1.90;;;;;;;23.82;49.09;98999.03;105320;1253;74843;-23
2023/08/23 11:42:37;;;;;;;5.10;1.90;;;;;;;24.00;48.66;98997.23;105505;1253;73049;-23